Madeira Beach, Florida
Current Conditions -  °F | °C
As of 3:53 AM on Wednesday 26 Nov 2014 (Local Time) from KSPG Reporting Station
Light Rain Light Rain  
Wind Chill: 60°   Ceiling: 1000
Heat Index: 60°   Visibility: 9mi
Dew Point: 57°   Wind: 16mph
Humidity: 90%   Direction: 340°NNW
Pressure: 29.94"   Gusts: 26mph
Location:  27.7976°N, 82.7976°W
Report Text: KSPG 260853Z AUTO 34014G23KT 9SM -RA BKN010 OVC013 16/14 A2994 RMK AO2 SLP136 P0006 60008 T01560139 53030
Loading
Personal Weather Stations






























Interactive Weather Map New forecast layout! Learn more

10-Day Weather Forecast

Advertisements
Track Severe Weather on mobile